Time;durP1;ratioP1;P1;durP2;ratioP2;P2;SDS_P1;SDS_P2;PMS_P1;PMS_P2;Temp;Humidity;BMP_temperature;BMP_pressure;BME280_temperature;BME280_humidity;BME280_pressure;Samples;Min_cycle;Max_cycle;Signal;HPM_P1;HPM_P2
2023/06/03 00:00:22;;;;;;;23.30;18.15;;;;;;;15.97;100.00;97343.50;10325048;28;20052;-51
2023/06/03 00:05:21;;;;;;;24.27;18.27;;;;;;;15.98;100.00;97350.47;10323569;28;20581;-50
2023/06/03 00:10:20;;;;;;;23.75;17.73;;;;;;;15.99;100.00;97346.94;10324067;28;20109;-50
2023/06/03 00:15:19;;;;;;;23.60;17.05;;;;;;;15.98;100.00;97345.25;10324485;28;20037;-49
2023/06/03 00:20:18;;;;;;;27.40;18.25;;;;;;;16.00;100.00;97329.50;10324279;28;20572;-50
2023/06/03 00:25:17;;;;;;;26.83;18.90;;;;;;;16.01;100.00;97329.44;10324670;28;20361;-49
2023/06/03 00:30:16;;;;;;;28.83;19.35;;;;;;;15.90;100.00;97310.56;10324052;28;20021;-51
2023/06/03 00:35:15;;;;;;;;;;;;;;;15.88;100.00;97321.13;10324450;28;20149;-51
2023/06/03 00:40:14;;;;;;;34.00;21.23;;;;;;;15.84;100.00;97316.00;10324672;28;20007;-51
2023/06/03 00:45:13;;;;;;;34.30;22.30;;;;;;;15.79;100.00;97307.44;10324539;28;20084;-50
2023/06/03 00:50:13;;;;;;;42.65;25.35;;;;;;;15.64;100.00;97288.63;10327038;28;20033;-50
2023/06/03 00:55:12;;;;;;;33.33;22.63;;;;;;;15.75;100.00;97300.53;10331345;28;20080;-52
2023/06/03 01:00:12;;;;;;;33.47;22.70;;;;;;;15.66;100.00;97291.19;10331211;28;20077;-51
2023/06/03 01:05:13;;;;;;;39.55;24.38;;;;;;;15.68;100.00;97294.63;10330676;28;20061;-51
2023/06/03 01:10:19;;;;;;;38.42;23.13;;;;;;;15.56;100.00;97267.06;10331139;28;20542;-52
2023/06/03 01:15:21;;;;;;;37.08;23.05;;;;;;;15.51;100.00;97265.50;10330780;28;20076;-50
2023/06/03 01:20:26;;;;;;;42.92;25.58;;;;;;;15.55;100.00;97283.69;10330285;28;20056;-51
2023/06/03 01:25:26;;;;;;;37.25;24.08;;;;;;;15.55;100.00;97270.59;10330668;28;20543;-52
2023/06/03 01:30:25;;;;;;;44.55;26.02;;;;;;;15.56;100.00;97267.06;10329701;28;20136;-50
2023/06/03 01:35:25;;;;;;;39.80;25.02;;;;;;;15.58;100.00;97275.72;10330476;28;20065;-52
2023/06/03 01:40:24;;;;;;;45.55;28.17;;;;;;;15.54;100.00;97265.41;10329641;28;20097;-53
2023/06/03 01:45:23;;;;;;;47.95;27.85;;;;;;;15.55;100.00;97268.00;10329233;28;20080;-51
2023/06/03 01:50:23;;;;;;;42.58;25.98;;;;;;;15.27;100.00;97219.97;10330112;28;20524;-52
2023/06/03 01:55:22;;;;;;;48.85;27.25;;;;;;;15.45;100.00;97246.44;10328939;28;20061;-52
2023/06/03 02:00:21;;;;;;;43.00;26.13;;;;;;;15.62;100.00;97261.69;10328749;28;20512;-52
2023/06/03 02:05:20;;;;;;;34.92;22.80;;;;;;;15.58;100.00;97278.34;10329777;28;20484;-52
2023/06/03 02:10:19;;;;;;;29.95;21.42;;;;;;;15.47;100.00;97280.41;10328315;28;20052;-50
2023/06/03 02:15:18;;;;;;;35.45;22.73;;;;;;;15.47;100.00;97285.63;10326481;28;20060;-52
2023/06/03 02:20:17;;;;;;;32.88;22.50;;;;;;;15.39;100.00;97290.25;10328542;28;20059;-50
2023/06/03 02:25:16;;;;;;;31.05;21.42;;;;;;;15.18;100.00;97300.38;10328992;28;20079;-52
2023/06/03 02:30:15;;;;;;;31.38;21.58;;;;;;;15.18;100.00;97310.81;10327541;28;20521;-49
2023/06/03 02:35:15;;;;;;;34.63;23.92;;;;;;;15.20;100.00;97308.16;10327979;28;21060;-53
2023/06/03 02:40:14;;;;;;;29.65;21.90;;;;;;;15.28;100.00;97315.81;10329612;28;20072;-52
2023/06/03 02:45:12;;;;;;;32.13;22.73;;;;;;;15.30;100.00;97320.09;10330672;28;20103;-52
2023/06/03 02:50:11;;;;;;;29.00;20.50;;;;;;;15.31;100.00;97324.41;10331362;28;20587;-50
2023/06/03 02:55:10;;;;;;;31.48;21.33;;;;;;;15.36;100.00;97332.13;10330663;28;20584;-52
2023/06/03 03:00:11;;;;;;;;;;;;;;;15.40;100.00;97349.47;10330304;28;20455;-50
2023/06/03 03:05:10;;;;;;;34.05;22.25;;;;;;;15.19;100.00;97317.75;10331606;28;19952;-53
2023/06/03 03:10:09;;;;;;;29.88;21.88;;;;;;;15.49;100.00;97358.81;10329997;28;20092;-53
2023/06/03 03:15:09;;;;;;;33.85;22.17;;;;;;;15.53;100.00;97363.94;10330011;28;20065;-52
2023/06/03 03:20:09;;;;;;;38.10;25.58;;;;;;;15.48;100.00;97364.94;10329432;28;20061;-51
2023/06/03 03:25:08;;;;;;;39.97;24.05;;;;;;;15.46;100.00;97383.31;10329270;28;20060;-52
2023/06/03 03:30:08;;;;;;;31.52;23.15;;;;;;;15.61;100.00;97393.34;10328646;28;20065;-53
2023/06/03 03:35:12;;;;;;;33.78;23.23;;;;;;;15.48;100.00;97360.56;10329017;28;20075;-52
2023/06/03 03:40:21;;;;;;;31.40;21.67;;;;;;;15.79;100.00;97392.00;10326894;28;20073;-52
2023/06/03 03:45:22;;;;;;;32.70;22.10;;;;;;;15.74;100.00;97382.53;10325242;28;20117;-52
2023/06/03 03:50:40;;;;;;;31.23;22.67;;;;;;;16.00;100.00;97403.63;10324920;28;20129;-51
2023/06/03 03:55:44;;;;;;;28.83;22.13;;;;;;;16.15;100.00;97402.34;10324410;28;20376;-53
2023/06/03 04:00:44;;;;;;;33.53;22.88;;;;;;;16.07;100.00;97389.47;10325529;28;20042;-52
2023/06/03 04:05:44;;;;;;;30.25;22.50;;;;;;;16.23;100.00;97418.69;10323862;28;20061;-50
2023/06/03 04:10:43;;;;;;;27.30;20.67;;;;;;;16.24;100.00;97424.78;10324787;28;20120;-51
2023/06/03 04:15:43;;;;;;;26.33;19.75;;;;;;;16.27;100.00;97422.91;10324587;28;20029;-50
2023/06/03 04:20:44;;;;;;;23.65;18.77;;;;;;;16.28;100.00;97426.41;10324256;28;21422;-53
2023/06/03 04:25:43;;;;;;;24.38;17.77;;;;;;;16.37;100.00;97420.91;10329345;28;20172;-52
2023/06/03 04:30:42;;;;;;;21.70;16.77;;;;;;;16.47;100.00;97430.19;10332234;28;20468;-52
2023/06/03 04:35:41;;;;;;;21.67;17.10;;;;;;;16.64;100.00;97434.06;10331223;28;20108;-51
2023/06/03 04:40:40;;;;;;;18.83;16.10;;;;;;;16.54;100.00;97436.13;10331684;28;20076;-52
2023/06/03 04:45:40;;;;;;;20.83;15.40;;;;;;;16.67;100.00;97445.28;10331301;28;20025;-53
2023/06/03 04:50:39;;;;;;;26.60;17.38;;;;;;;16.73;100.00;97436.41;10330492;28;20124;-52
2023/06/03 04:55:42;;;;;;;25.00;18.83;;;;;;;16.79;100.00;97436.19;10331047;28;20060;-52
2023/06/03 05:00:41;;;;;;;23.35;18.48;;;;;;;16.86;100.00;97440.41;10331597;28;20124;-50
2023/06/03 05:05:46;;;;;;;23.40;18.10;;;;;;;17.05;100.00;97448.53;10331229;28;20682;-52
2023/06/03 05:10:45;;;;;;;21.30;15.55;;;;;;;17.22;100.00;97448.00;10329245;28;20065;-50
2023/06/03 05:15:44;;;;;;;23.35;17.48;;;;;;;17.24;100.00;97442.69;10331049;28;20043;-52
2023/06/03 05:20:43;;;;;;;21.05;16.67;;;;;;;17.38;99.16;97452.72;10328502;28;20069;-51
2023/06/03 05:25:42;;;;;;;19.05;15.70;;;;;;;17.31;98.25;97445.06;10331946;28;20117;-52
2023/06/03 05:30:41;;;;;;;19.95;15.18;;;;;;;17.52;99.52;97458.38;10328089;28;20099;-50
2023/06/03 05:35:40;;;;;;;22.25;16.10;;;;;;;17.74;99.47;97459.34;10265899;28;20059;-52
2023/06/03 05:40:39;;;;;;;20.52;14.88;;;;;;;17.92;97.71;97470.19;10331804;28;20179;-53
2023/06/03 05:45:38;;;;;;;19.02;14.55;;;;;;;18.06;95.35;97462.66;10279228;28;20077;-50
2023/06/03 05:50:48;;;;;;;19.73;15.07;;;;;;;18.15;93.42;97462.34;10331654;28;20048;-52
2023/06/03 05:55:48;;;;;;;19.25;14.05;;;;;;;18.29;95.69;97456.59;10332373;28;20077;-52
2023/06/03 06:00:47;;;;;;;17.17;14.23;;;;;;;18.44;92.96;97462.19;10333092;28;20065;-53
2023/06/03 06:05:46;;;;;;;19.90;15.02;;;;;;;18.35;91.69;97456.34;10333690;28;20064;-50
2023/06/03 06:10:45;;;;;;;18.98;14.60;;;;;;;18.44;90.27;97460.41;10333343;28;20069;-52
2023/06/03 06:15:58;;;;;;;16.27;13.50;;;;;;;18.48;88.98;97466.38;10332131;28;20026;-51
2023/06/03 06:20:58;;;;;;;18.35;16.30;;;;;;;18.66;90.37;97472.72;10331112;28;20080;-53
2023/06/03 06:25:57;;;;;;;19.10;15.95;;;;;;;19.00;89.32;97478.44;10331357;28;20064;-50
2023/06/03 06:31:02;;;;;;;16.38;13.27;;;;;;;19.30;86.54;97472.88;10331074;28;20041;-52
2023/06/03 06:36:03;;;;;;;15.77;12.82;;;;;;;19.67;87.93;97474.00;10331796;28;20073;-53
2023/06/03 06:41:04;;;;;;;14.40;11.57;;;;;;;19.93;84.06;97470.28;10327468;28;20522;-52
2023/06/03 06:46:03;;;;;;;17.45;13.43;;;;;;;20.26;84.22;97472.34;10327046;28;20073;-52
2023/06/03 06:51:02;;;;;;;16.65;12.25;;;;;;;20.43;81.74;97475.09;10326170;28;20133;-52
2023/06/03 06:56:06;;;;;;;15.13;12.07;;;;;;;20.48;80.58;97469.63;10326664;28;20049;-52
2023/06/03 07:01:06;;;;;;;16.60;11.38;;;;;;;20.73;79.82;97471.13;10326581;28;20067;-51
2023/06/03 07:06:05;;;;;;;15.10;9.40;;;;;;;20.59;76.18;97448.91;10326718;28;20147;-52
2023/06/03 07:11:04;;;;;;;14.13;9.07;;;;;;;21.00;74.92;97484.81;10326378;28;20477;-52
2023/06/03 07:16:03;;;;;;;12.05;8.30;;;;;;;20.99;74.35;97477.84;10324388;28;20113;-50
2023/06/03 07:21:02;;;;;;;9.38;8.15;;;;;;;21.06;74.58;97485.38;10323849;28;20117;-51
2023/06/03 07:26:03;;;;;;;19.33;14.45;;;;;;;21.21;72.04;97491.72;10325782;28;20109;-50
2023/06/03 07:31:05;;;;;;;12.93;8.82;;;;;;;21.45;69.88;97496.72;10325324;28;20087;-53
2023/06/03 07:36:04;;;;;;;12.43;7.78;;;;;;;21.72;66.39;97499.81;10325979;28;20073;-53
2023/06/03 07:41:07;;;;;;;10.13;7.60;;;;;;;21.41;68.02;97514.53;10324747;28;20064;-53
2023/06/03 07:46:07;;;;;;;12.45;7.35;;;;;;;21.35;69.22;97520.09;10325791;28;20064;-53
2023/06/03 07:51:07;;;;;;;9.30;7.35;;;;;;;21.86;69.60;97523.75;10324902;28;20183;-53
2023/06/03 07:56:12;;;;;;;10.88;7.43;;;;;;;22.06;70.52;97524.53;10324574;28;20073;-52
2023/06/03 08:01:11;;;;;;;11.10;7.10;;;;;;;22.52;67.81;97530.09;10324281;28;20115;-52
2023/06/03 08:06:10;;;;;;;12.57;7.68;;;;;;;22.95;66.66;97526.03;10324660;28;20061;-52
2023/06/03 08:11:10;;;;;;;7.97;6.63;;;;;;;22.62;61.51;97527.81;10320318;28;20128;-53
2023/06/03 08:16:14;;;;;;;11.43;7.00;;;;;;;22.76;64.17;97530.59;10319081;28;20421;-53
2023/06/03 08:21:13;;;;;;;9.95;6.30;;;;;;;22.91;64.37;97527.13;10319374;28;20087;-52
2023/06/03 08:26:12;;;;;;;10.40;6.82;;;;;;;23.12;62.15;97527.75;10319642;28;20069;-50
2023/06/03 08:31:12;;;;;;;10.88;6.95;;;;;;;23.13;66.10;97526.78;10314002;28;20033;-53
2023/06/03 08:36:11;;;;;;;9.10;6.80;;;;;;;22.97;61.22;97528.56;10322088;28;20092;-53
2023/06/03 08:41:10;;;;;;;10.35;6.82;;;;;;;23.07;63.53;97524.50;10324973;28;21066;-53
2023/06/03 08:46:31;;;;;;;10.23;6.93;;;;;;;23.48;64.01;97524.00;10300378;28;20093;-53
2023/06/03 08:51:38;;;;;;;11.50;7.30;;;;;;;23.46;61.24;97522.34;10324610;28;20069;-51
2023/06/03 08:56:42;;;;;;;9.65;6.20;;;;;;;23.53;62.18;97529.88;10326562;28;20092;-52
2023/06/03 09:01:46;;;;;;;8.38;7.07;;;;;;;23.50;59.83;97527.41;10324485;28;20112;-53
2023/06/03 09:06:46;;;;;;;9.05;6.50;;;;;;;23.34;59.99;97489.47;10324464;28;20091;-51
2023/06/03 09:11:47;;;;;;;9.20;6.85;;;;;;;23.67;60.53;97533.53;10330162;28;20116;-53
2023/06/03 09:16:46;;;;;;;8.88;7.43;;;;;;;23.87;61.40;97525.28;10332651;28;20067;-53
2023/06/03 09:21:47;;;;;;;10.82;6.78;;;;;;;24.04;58.58;97527.78;10333901;28;20021;-52
2023/06/03 09:26:47;;;;;;;6.97;6.22;;;;;;;24.04;58.18;97522.50;10333293;28;20069;-53
2023/06/03 09:31:49;;;;;;;8.30;6.00;;;;;;;24.12;58.21;97514.06;10334122;28;20065;-53
2023/06/03 09:36:49;;;;;;;8.00;6.38;;;;;;;24.17;56.57;97516.44;10333698;28;20069;-53
2023/06/03 09:41:50;;;;;;;7.18;6.15;;;;;;;23.96;56.76;97523.88;10330254;28;20477;-52
2023/06/03 09:46:50;;;;;;;8.88;6.30;;;;;;;23.97;58.18;97488.50;10328221;28;20129;-54
2023/06/03 09:51:49;;;;;;;6.88;6.18;;;;;;;23.97;55.87;97499.94;10328810;28;20564;-53
2023/06/03 09:56:49;;;;;;;7.25;6.22;;;;;;;24.56;56.96;97507.91;10328539;28;20068;-53
2023/06/03 10:01:50;;;;;;;7.78;6.88;;;;;;;25.09;57.00;97505.53;10329597;28;20068;-51
2023/06/03 10:07:09;;;;;;;8.55;6.15;;;;;;;24.95;53.50;97509.06;10328252;28;20466;-51
2023/06/03 10:12:10;;;;;;;8.90;6.10;;;;;;;24.95;53.21;97513.53;10327765;28;20741;-51
2023/06/03 10:17:11;;;;;;;12.68;6.30;;;;;;;25.33;52.20;97503.09;10325695;28;20580;-51
2023/06/03 10:22:12;;;;;;;8.65;6.35;;;;;;;25.20;51.27;97500.38;10326316;28;20582;-51
2023/06/03 10:27:13;;;;;;;7.03;6.03;;;;;;;24.84;53.98;97522.97;10328167;28;20073;-51
2023/06/03 10:32:14;;;;;;;10.60;6.95;;;;;;;24.11;56.43;97530.09;10323965;28;20120;-51
2023/06/03 10:37:14;;;;;;;10.70;7.32;;;;;;;23.17;59.11;97528.34;10327059;28;20128;-52
2023/06/03 10:42:13;;;;;;;10.07;7.28;;;;;;;22.52;61.09;97524.81;10328237;28;20084;-53
2023/06/03 10:47:24;;;;;;;11.07;8.48;;;;;;;22.11;67.02;97536.59;10327203;28;20120;-52
2023/06/03 10:52:48;;;;;;;15.98;10.10;;;;;;;21.26;74.63;97558.31;10323201;28;20072;-51
2023/06/03 10:57:51;;;;;;;15.38;11.75;;;;;;;20.35;80.08;97558.03;10326949;28;20069;-51
2023/06/03 11:03:05;;;;;;;20.50;12.73;;;;;;;19.92;83.25;97557.22;10325842;28;20104;-52
2023/06/03 11:08:04;;;;;;;16.92;13.73;;;;;;;19.91;84.60;97558.13;10324041;28;20495;-51
2023/06/03 11:13:03;;;;;;;15.13;12.73;;;;;;;19.77;84.55;97530.63;10323309;28;20033;-53
2023/06/03 11:18:17;;;;;;;15.95;13.63;;;;;;;19.92;85.71;97555.44;10323089;28;20109;-54
2023/06/03 11:23:38;;;;;;;17.40;13.05;;;;;;;19.97;86.78;97550.00;10323915;28;20384;-53
2023/06/03 11:28:37;;;;;;;14.98;13.48;;;;;;;20.04;86.44;97546.16;10286940;28;20141;-51
2023/06/03 11:33:36;;;;;;;23.17;14.88;;;;;;;20.00;87.50;97553.38;10274681;28;20537;-54
2023/06/03 11:38:58;;;;;;;16.90;14.18;;;;;;;20.27;86.85;97577.66;10283149;28;20540;-53
2023/06/03 11:44:22;;;;;;;18.25;13.30;;;;;;;20.44;86.45;97576.97;10282728;28;20139;-52
2023/06/03 11:49:24;;;;;;;18.02;14.73;;;;;;;20.44;87.03;97562.94;10282922;28;20105;-53
2023/06/03 11:54:23;;;;;;;16.23;14.52;;;;;;;20.43;85.12;97555.97;10282006;28;20117;-53
2023/06/03 11:59:36;;;;;;;16.52;14.75;;;;;;;20.55;85.99;97552.78;10283693;28;20134;-53
2023/06/03 12:04:35;;;;;;;17.88;15.98;;;;;;;20.77;86.00;97523.63;10282046;28;20061;-52
2023/06/03 12:09:34;;;;;;;16.90;15.18;;;;;;;21.31;83.36;97551.06;10281295;28;20593;-53
2023/06/03 12:14:37;;;;;;;16.98;14.45;;;;;;;21.52;82.23;97509.59;10283775;28;20121;-50
2023/06/03 12:19:38;;;;;;;15.23;13.45;;;;;;;21.97;77.39;97537.25;10283888;28;20117;-53
2023/06/03 12:24:41;;;;;;;15.82;14.07;;;;;;;22.11;77.30;97533.97;10283188;28;20120;-53
2023/06/03 12:29:43;;;;;;;13.85;12.05;;;;;;;21.84;76.11;97479.84;10282431;28;20113;-52
2023/06/03 12:34:43;;;;;;;13.48;12.02;;;;;;;22.07;73.51;97515.69;10282531;28;20081;-53
2023/06/03 12:39:49;;;;;;;14.13;12.63;;;;;;;22.28;75.70;97513.72;10283294;28;20459;-52
2023/06/03 12:44:52;;;;;;;15.13;13.48;;;;;;;22.82;74.71;97517.03;10285139;28;20080;-53
2023/06/03 12:50:08;;;;;;;13.57;12.20;;;;;;;23.04;72.92;97514.06;10290553;28;20140;-53
2023/06/03 12:55:09;;;;;;;12.50;11.25;;;;;;;23.25;67.71;97511.16;10288965;28;20121;-52
2023/06/03 13:00:18;;;;;;;12.70;11.43;;;;;;;23.02;68.31;97481.53;10241072;28;20089;-53
2023/06/03 13:05:24;;;;;;;12.80;10.77;;;;;;;23.44;69.01;97498.59;10328053;28;20068;-53
2023/06/03 13:10:23;;;;;;;13.38;11.05;;;;;;;23.92;72.51;97502.00;10327125;28;20441;-51
2023/06/03 13:15:23;;;;;;;12.00;10.70;;;;;;;24.46;68.16;97509.44;10323716;28;20033;-52
2023/06/03 13:20:22;;;;;;;11.90;10.68;;;;;;;24.67;63.82;97504.59;10328205;28;20125;-53
2023/06/03 13:25:22;;;;;;;12.23;10.93;;;;;;;24.68;63.57;97506.28;10324219;28;20041;-56
2023/06/03 13:30:20;;;;;;;11.45;10.27;;;;;;;24.66;62.95;97500.22;10328229;28;20116;-53
2023/06/03 13:35:20;;;;;;;13.85;12.43;;;;;;;24.49;64.49;97503.91;10329560;28;20116;-53
2023/06/03 13:40:19;;;;;;;12.98;11.52;;;;;;;24.72;64.94;97521.09;10329177;28;20112;-53
2023/06/03 13:45:18;;;;;;;13.60;10.80;;;;;;;24.97;62.60;97531.06;10333111;28;20502;-51
2023/06/03 13:50:17;;;;;;;13.75;11.43;;;;;;;24.95;60.99;97532.09;10330307;28;20523;-49
2023/06/03 13:55:16;;;;;;;11.77;10.57;;;;;;;24.63;59.23;97527.78;10332637;28;20041;-53
2023/06/03 14:00:15;;;;;;;11.57;10.38;;;;;;;24.28;58.79;97519.34;10328271;28;20572;-51
2023/06/03 14:05:14;;;;;;;13.02;11.35;;;;;;;24.27;59.06;97522.97;10331715;28;20091;-51
2023/06/03 14:10:14;;;;;;;12.15;10.45;;;;;;;24.31;58.75;97519.19;10332375;28;20127;-51
2023/06/03 14:15:13;;;;;;;12.40;10.95;;;;;;;24.64;60.27;97510.09;10330746;28;20077;-51
2023/06/03 14:20:12;;;;;;;12.93;10.95;;;;;;;24.89;58.08;97510.31;10330999;28;20044;-51
2023/06/03 14:25:11;;;;;;;13.15;11.75;;;;;;;24.93;58.24;97504.81;10331869;28;20033;-51
2023/06/03 14:30:10;;;;;;;12.18;10.95;;;;;;;25.08;57.08;97503.81;10330435;28;20109;-51
2023/06/03 14:35:09;;;;;;;13.10;11.80;;;;;;;25.09;57.74;97511.69;10331369;28;20111;-53
2023/06/03 14:40:09;;;;;;;11.88;10.55;;;;;;;25.09;57.35;97500.22;10327377;28;20130;-50
2023/06/03 14:45:08;;;;;;;16.92;15.02;;;;;;;25.49;56.98;97502.94;10327032;28;20484;-53
2023/06/03 14:50:07;;;;;;;12.80;11.23;;;;;;;25.98;54.68;97491.72;10324509;28;20160;-52
2023/06/03 14:55:07;;;;;;;12.93;11.63;;;;;;;25.62;55.16;97455.19;10325751;28;20096;-53
2023/06/03 15:00:06;;;;;;;12.40;11.07;;;;;;;25.95;55.64;97462.72;10326576;28;20504;-52
2023/06/03 15:05:05;;;;;;;11.50;10.30;;;;;;;26.10;54.35;97463.44;10325425;28;20853;-51
2023/06/03 15:10:05;;;;;;;12.10;10.80;;;;;;;25.97;52.55;97466.09;10325241;28;20172;-52
2023/06/03 15:15:05;;;;;;;13.70;11.95;;;;;;;25.99;55.76;97468.66;10325705;28;20188;-55
2023/06/03 15:20:05;;;;;;;13.52;12.13;;;;;;;26.07;53.39;97467.19;10325629;28;20071;-52
2023/06/03 15:25:04;;;;;;;15.82;13.32;;;;;;;26.09;52.47;97481.22;10326459;28;20536;-53
2023/06/03 15:30:04;;;;;;;17.50;14.77;;;;;;;25.71;52.04;97476.69;10324562;28;20120;-53
2023/06/03 15:35:04;;;;;;;13.35;11.23;;;;;;;25.37;53.68;97482.50;10325309;28;20069;-53
2023/06/03 15:40:04;;;;;;;12.20;10.95;;;;;;;25.14;55.68;97484.00;10324709;28;20475;-54
2023/06/03 15:45:03;;;;;;;13.73;10.82;;;;;;;24.88;56.97;97483.84;10326041;28;20061;-51
2023/06/03 15:50:03;;;;;;;10.77;9.68;;;;;;;24.68;56.77;97469.13;10324123;28;20124;-52
2023/06/03 15:55:03;;;;;;;11.70;9.70;;;;;;;24.56;56.82;97491.97;10322888;28;20535;-53
2023/06/03 16:00:03;;;;;;;13.68;11.45;;;;;;;24.21;58.00;97507.41;10323344;28;20582;-52
2023/06/03 16:05:03;;;;;;;11.75;10.13;;;;;;;24.15;57.75;97507.75;10324002;28;20120;-52
2023/06/03 16:10:02;;;;;;;12.15;10.80;;;;;;;24.12;58.98;97518.53;10324020;28;20060;-52
2023/06/03 16:15:01;;;;;;;12.18;10.38;;;;;;;23.44;61.08;97520.66;10323394;28;20106;-52
2023/06/03 16:20:00;;;;;;;11.75;10.65;;;;;;;23.11;62.12;97504.84;10326056;28;20272;-52
2023/06/03 16:25:00;;;;;;;14.23;12.13;;;;;;;23.15;63.34;97524.91;10333093;28;20037;-52
2023/06/03 16:29:59;;;;;;;13.40;12.05;;;;;;;22.69;65.44;97519.44;10331134;28;20069;-52
2023/06/03 16:34:58;;;;;;;14.75;13.10;;;;;;;22.46;67.89;97539.22;10331464;28;20076;-53
2023/06/03 16:39:58;;;;;;;15.82;13.95;;;;;;;22.38;67.64;97544.88;10332156;28;20026;-53
2023/06/03 16:44:57;;;;;;;16.83;13.48;;;;;;;22.23;68.16;97527.19;10331566;28;20081;-54
2023/06/03 16:49:56;;;;;;;15.82;13.48;;;;;;;22.10;69.13;97510.25;10327645;28;20045;-53
2023/06/03 16:54:55;;;;;;;14.52;12.50;;;;;;;22.25;68.86;97530.59;10331284;28;20132;-53
2023/06/03 16:59:54;;;;;;;20.60;13.70;;;;;;;22.16;70.02;97541.66;10330677;28;20124;-53
2023/06/03 17:04:55;;;;;;;16.00;13.20;;;;;;;22.10;70.42;97541.94;10329771;28;20029;-54
2023/06/03 17:09:54;;;;;;;15.30;12.70;;;;;;;21.98;73.54;97553.97;10329559;28;20557;-53
2023/06/03 17:14:54;;;;;;;16.13;12.90;;;;;;;21.64;73.63;97533.66;10327561;28;20029;-53
2023/06/03 17:19:53;;;;;;;10.38;8.60;;;;;;;20.97;73.82;97535.94;10329269;28;20112;-52
2023/06/03 17:24:52;;;;;;;13.60;8.70;;;;;;;20.60;80.53;97573.66;10330579;28;20108;-53
2023/06/03 17:29:52;;;;;;;18.27;10.57;;;;;;;18.09;93.43;97604.34;10330404;28;20095;-54
2023/06/03 17:34:51;;;;;;;26.33;10.35;;;;;;;15.73;100.00;97635.44;10329402;28;20068;-58
2023/06/03 17:39:50;;;;;;;29.75;10.73;;;;;;;13.96;100.00;97654.59;10330955;28;20026;-58
2023/06/03 17:44:49;;;;;;;;;;;;;;;13.83;100.00;97658.28;10330959;28;20103;-58
2023/06/03 17:49:50;;;;;;;36.20;22.40;;;;;;;14.08;100.00;97610.94;10331758;28;19960;-57
2023/06/03 17:54:49;;;;;;;33.90;19.15;;;;;;;14.48;100.00;97672.88;10331666;28;20081;-56
2023/06/03 17:59:48;;;;;;;28.95;18.42;;;;;;;14.51;100.00;97702.38;10331811;28;20080;-57
2023/06/03 18:04:47;;;;;;;36.70;19.48;;;;;;;14.75;100.00;97739.44;10331939;28;20037;-54
2023/06/03 18:09:46;;;;;;;;;;;;;;;13.79;100.00;97745.25;10330583;28;20119;-59
2023/06/03 18:14:45;;;;;;;41.37;18.07;;;;;;;13.92;100.00;97759.00;10330790;28;19912;-58
2023/06/03 18:19:43;;;;;;;;;;;;;;;13.65;100.00;97757.63;10330695;28;20028;-57
2023/06/03 18:24:42;;;;;;;29.20;18.00;;;;;;;13.84;100.00;97759.09;10330510;28;19917;-56
2023/06/03 18:29:41;;;;;;;;;;;;;;;14.09;100.00;97764.84;10330834;28;20047;-55
2023/06/03 18:34:42;;;;;;;36.53;19.30;;;;;;;14.31;100.00;97791.50;10331025;28;20414;-55
2023/06/03 18:39:41;;;;;;;33.85;18.85;;;;;;;14.50;100.00;97799.91;10330704;28;20080;-56
2023/06/03 18:44:40;;;;;;;32.05;17.75;;;;;;;14.58;100.00;97804.97;10328754;28;20080;-55
2023/06/03 18:49:39;;;;;;;28.17;16.75;;;;;;;14.69;100.00;97823.97;10326211;28;20112;-55
2023/06/03 18:54:38;;;;;;;27.55;16.80;;;;;;;14.85;100.00;97826.31;10331223;28;20076;-55
2023/06/03 18:59:37;;;;;;;25.38;15.43;;;;;;;15.21;100.00;97837.91;10331669;28;20037;-56
2023/06/03 19:04:37;;;;;;;;;;;;;;;15.31;100.00;97836.84;10333154;28;20727;-55
2023/06/03 19:09:36;;;;;;;31.25;17.45;;;;;;;14.98;100.00;97846.16;10332874;28;20451;-54
2023/06/03 19:14:35;;;;;;;26.63;16.52;;;;;;;15.01;100.00;97851.31;10329182;28;20049;-55
2023/06/03 19:19:34;;;;;;;;;;;;;;;14.87;100.00;97850.69;10326264;28;20041;-55
2023/06/03 19:24:33;;;;;;;30.33;17.87;;;;;;;14.69;100.00;97818.72;10329287;28;19916;-55
2023/06/03 19:29:31;;;;;;;;;;;;;;;14.92;100.00;97841.00;10329981;28;20033;-55
2023/06/03 19:34:30;;;;;;;25.80;17.67;;;;;;;14.91;100.00;97847.13;10330856;28;20415;-54
2023/06/03 19:39:29;;;;;;;;;;;;;;;14.96;100.00;97837.47;10330881;28;20073;-55
2023/06/03 19:44:28;;;;;;;23.20;16.70;;;;;;;15.07;100.00;97834.69;10330266;28;19959;-54
2023/06/03 19:49:27;;;;;;;29.65;17.27;;;;;;;15.10;100.00;97825.00;10321544;28;20045;-55
2023/06/03 19:54:26;;;;;;;21.38;15.93;;;;;;;15.04;100.00;97822.53;10323232;28;20104;-55
2023/06/03 19:59:25;;;;;;;29.60;17.38;;;;;;;15.00;100.00;97816.47;10318401;28;20013;-55
2023/06/03 20:04:24;;;;;;;;;;;;;;;15.07;100.00;97822.47;10322841;28;20041;-55
2023/06/03 20:09:23;;;;;;;24.87;16.83;;;;;;;14.97;100.00;97827.00;10322821;28;20011;-55
2023/06/03 20:14:21;;;;;;;;;;;;;;;14.73;100.00;97833.50;10324625;28;20112;-55
2023/06/03 20:19:20;;;;;;;33.20;19.77;;;;;;;14.56;100.00;97843.31;10323511;28;19920;-55
2023/06/03 20:24:19;;;;;;;;;;;;;;;14.48;100.00;97839.97;10324818;28;20500;-55
2023/06/03 20:29:18;;;;;;;27.07;17.40;;;;;;;14.51;100.00;97851.22;10323512;28;19917;-55
2023/06/03 20:34:17;;;;;;;32.83;19.05;;;;;;;14.44;100.00;97853.94;10323739;28;20120;-55
2023/06/03 20:39:16;;;;;;;29.85;17.80;;;;;;;14.13;100.00;97813.50;10323774;28;20120;-55
2023/06/03 20:44:15;;;;;;;29.52;18.77;;;;;;;14.38;100.00;97844.44;10324440;28;20049;-54
2023/06/03 20:49:14;;;;;;;;;;;;;;;14.61;100.00;97862.38;10322970;28;20033;-56
2023/06/03 20:54:12;;;;;;;31.63;17.43;;;;;;;14.78;100.00;97859.53;10322766;28;20023;-56
2023/06/03 20:59:12;;;;;;;27.98;18.35;;;;;;;14.89;100.00;97860.22;10323374;28;20014;-55
2023/06/03 21:04:11;;;;;;;;;;;;;;;14.97;100.00;97866.19;10323089;28;20511;-54
2023/06/03 21:09:10;;;;;;;31.60;19.17;;;;;;;15.02;100.00;97864.38;10327554;28;20020;-54
2023/06/03 21:14:12;;;;;;;41.08;22.08;;;;;;;15.04;100.00;97867.81;10330081;28;20076;-54
2023/06/03 21:19:13;;;;;;;42.90;23.88;;;;;;;15.06;100.00;97878.25;10328740;28;20120;-55
2023/06/03 21:24:15;;;;;;;42.58;23.17;;;;;;;15.10;100.00;97876.44;10326467;28;20512;-54
2023/06/03 21:29:14;;;;;;;46.03;25.90;;;;;;;15.13;100.00;97866.81;10327903;28;20113;-52
2023/06/03 21:34:19;;;;;;;41.90;23.65;;;;;;;15.17;100.00;97870.22;10328083;28;20069;-55
2023/06/03 21:39:22;;;;;;;37.28;22.05;;;;;;;15.23;100.00;97867.50;10329471;28;20473;-54
2023/06/03 21:44:25;;;;;;;39.05;22.98;;;;;;;15.16;100.00;97869.34;10333573;28;20527;-54
2023/06/03 21:49:24;;;;;;;43.10;23.65;;;;;;;15.14;100.00;97872.88;10331494;28;20566;-54
2023/06/03 21:54:23;;;;;;;38.45;23.13;;;;;;;15.06;100.00;97877.38;10326083;28;20481;-54
2023/06/03 21:59:22;;;;;;;37.72;22.15;;;;;;;15.05;100.00;97873.91;10330992;28;20572;-54
2023/06/03 22:04:25;;;;;;;;;;;;;;;15.00;100.00;97870.50;10333120;28;20386;-52
2023/06/03 22:09:24;;;;;;;42.55;23.60;;;;;;;14.93;100.00;97868.88;10330858;28;19972;-52
2023/06/03 22:14:25;;;;;;;51.17;25.92;;;;;;;14.80;100.00;97858.66;10332124;28;20105;-53
2023/06/03 22:19:25;;;;;;;54.10;26.50;;;;;;;13.66;100.00;97707.22;10328849;28;20591;-52
2023/06/03 22:24:25;;;;;;;60.50;28.60;;;;;;;14.54;100.00;97858.13;10329439;28;20080;-52
2023/06/03 22:29:23;;;;;;;53.30;26.30;;;;;;;14.38;100.00;97821.84;10330739;28;20064;-52
2023/06/03 22:34:30;;;;;;;54.45;24.70;;;;;;;14.73;100.00;97859.63;10329874;28;20033;-52
2023/06/03 22:39:29;;;;;;;48.22;23.80;;;;;;;14.83;100.00;97865.56;10327485;28;20075;-52
2023/06/03 22:44:28;;;;;;;44.80;23.63;;;;;;;14.91;100.00;97860.22;10310152;28;20033;-52
2023/06/03 22:49:27;;;;;;;40.58;23.00;;;;;;;14.87;100.00;97861.13;10324108;28;20069;-53